createdAt,value
2018-04-17T00:00:34.456Z,46.99
2018-04-17T00:02:12.351Z,47.00
2018-04-17T00:03:50.101Z,47.01
2018-04-17T00:05:28.505Z,46.99
2018-04-17T00:07:06.974Z,46.99
2018-04-17T00:08:44.672Z,46.98
2018-04-17T00:10:22.599Z,46.97
2018-04-17T00:12:01.007Z,46.96
2018-04-17T00:13:38.383Z,46.94
2018-04-17T00:15:16.771Z,46.93
2018-04-17T00:16:54.311Z,46.93
2018-04-17T00:18:31.765Z,46.95
2018-04-17T00:20:09.033Z,46.95
2018-04-17T00:21:47.332Z,46.95
2018-04-17T00:23:25.648Z,46.92
2018-04-17T00:25:03.217Z,46.88
2018-04-17T00:26:40.478Z,46.89
2018-04-17T00:28:17.551Z,46.87
2018-04-17T00:29:54.673Z,46.87
2018-04-17T00:31:32.470Z,46.84
2018-04-17T00:33:10.471Z,46.80
2018-04-17T00:34:48.300Z,46.75
2018-04-17T00:36:26.998Z,46.73
2018-04-17T00:38:04.670Z,46.69
2018-04-17T00:39:42.054Z,46.70
2018-04-17T00:41:19.968Z,46.72
2018-04-17T00:42:57.235Z,46.74
2018-04-17T00:44:34.821Z,46.79
2018-04-17T00:46:12.365Z,46.84
2018-04-17T00:47:48.898Z,46.87
2018-04-17T00:49:26.952Z,46.90
2018-04-17T00:51:04.519Z,46.91
2018-04-17T00:52:41.609Z,46.91
2018-04-17T00:54:20.020Z,46.90
2018-04-17T00:55:56.558Z,46.91
2018-04-17T00:57:33.956Z,46.91
2018-04-17T00:59:11.411Z,46.92
2018-04-17T01:00:48.700Z,46.94
2018-04-17T01:02:26.017Z,46.95
2018-04-17T01:04:03.069Z,46.97
2018-04-17T01:05:40.111Z,46.98
2018-04-17T01:07:17.313Z,47.00
2018-04-17T01:08:54.491Z,47.02
2018-04-17T01:10:32.153Z,47.02
2018-04-17T01:12:08.865Z,47.04
2018-04-17T01:13:46.775Z,47.05
2018-04-17T01:15:25.993Z,47.05
2018-04-17T01:17:05.803Z,47.07
2018-04-17T01:18:44.098Z,47.09
2018-04-17T01:20:25.502Z,47.10
2018-04-17T01:22:03.769Z,47.11
2018-04-17T01:23:41.750Z,47.13
2018-04-17T01:25:18.963Z,47.14
2018-04-17T01:26:56.494Z,47.14
2018-04-17T01:28:33.298Z,47.15
2018-04-17T01:30:10.794Z,47.16
2018-04-17T01:31:48.859Z,47.16
2018-04-17T01:33:26.840Z,47.18
2018-04-17T01:35:05.099Z,47.19
2018-04-17T01:36:42.431Z,47.21
2018-04-17T01:38:22.065Z,47.22
2018-04-17T01:39:59.099Z,47.22
2018-04-17T01:41:37.243Z,47.22
2018-04-17T01:43:14.334Z,47.22
2018-04-17T01:44:51.495Z,47.22
2018-04-17T01:46:28.897Z,47.20
2018-04-17T01:48:05.718Z,47.21
2018-04-17T01:49:43.418Z,47.22
2018-04-17T01:51:21.017Z,47.23
2018-04-17T01:52:58.187Z,47.25
2018-04-17T01:54:39.339Z,47.25
2018-04-17T01:56:16.265Z,47.27
2018-04-17T01:57:53.414Z,47.29
2018-04-17T01:59:30.622Z,47.31
2018-04-17T02:01:09.338Z,47.34
2018-04-17T02:02:48.623Z,47.36
2018-04-17T02:04:27.082Z,47.34
2018-04-17T02:06:05.445Z,47.34
2018-04-17T02:07:43.557Z,47.35
2018-04-17T02:09:21.620Z,47.37
2018-04-17T02:10:59.991Z,47.41
2018-04-17T02:12:36.908Z,47.43
2018-04-17T02:14:14.550Z,47.47
2018-04-17T02:15:53.370Z,47.51
2018-04-17T02:17:31.223Z,47.54
2018-04-17T02:19:08.979Z,47.57
2018-04-17T02:20:48.001Z,47.60
2018-04-17T02:22:26.629Z,47.59
2018-04-17T02:24:04.505Z,47.58
2018-04-17T02:25:41.667Z,47.55
2018-04-17T02:27:21.925Z,47.51
2018-04-17T02:28:58.661Z,47.47
2018-04-17T02:30:36.535Z,47.45
2018-04-17T02:32:14.511Z,47.46
2018-04-17T02:33:53.468Z,47.47
2018-04-17T02:35:31.938Z,47.49
2018-04-17T02:37:08.617Z,47.50
2018-04-17T02:38:47.394Z,47.46
2018-04-17T02:40:26.494Z,47.42
2018-04-17T02:42:04.388Z,47.38
2018-04-17T02:43:42.429Z,47.37
2018-04-17T02:45:20.582Z,47.32
2018-04-17T02:46:59.298Z,47.30
2018-04-17T02:48:36.292Z,47.27
2018-04-17T02:50:13.378Z,47.25
2018-04-17T02:51:51.067Z,47.26
2018-04-17T02:53:29.713Z,47.26
2018-04-17T02:55:08.502Z,47.27
2018-04-17T02:56:46.245Z,47.30
2018-04-17T02:58:23.529Z,47.34
2018-04-17T03:00:01.607Z,47.39
2018-04-17T03:01:40.895Z,47.48
2018-04-17T03:03:18.933Z,47.52
2018-04-17T03:04:57.578Z,47.55
2018-04-17T03:06:35.119Z,47.60
2018-04-17T03:08:12.946Z,47.65
2018-04-17T03:09:50.138Z,47.69
2018-04-17T03:11:27.835Z,47.72
2018-04-17T03:13:06.516Z,47.75
2018-04-17T03:14:44.023Z,47.79
2018-04-17T03:16:22.737Z,47.79
2018-04-17T03:17:59.187Z,47.79
2018-04-17T03:19:37.328Z,47.77
2018-04-17T03:21:15.788Z,47.76
2018-04-17T03:22:53.357Z,47.76
2018-04-17T03:24:31.547Z,47.75
2018-04-17T03:26:08.934Z,47.75
2018-04-17T03:27:46.475Z,47.76
2018-04-17T03:29:24.315Z,47.73
2018-04-17T03:31:01.860Z,47.71
2018-04-17T03:32:40.367Z,47.72
2018-04-17T03:34:17.247Z,47.71
2018-04-17T03:35:54.785Z,47.72
2018-04-17T03:37:31.918Z,47.72
2018-04-17T03:39:09.320Z,47.75
2018-04-17T03:40:46.533Z,47.77
2018-04-17T03:42:23.032Z,47.79
2018-04-17T03:44:02.011Z,47.83
2018-04-17T03:45:39.715Z,47.85
2018-04-17T03:47:16.658Z,47.91
2018-04-17T03:50:35.545Z,48.00
2018-04-17T03:52:13.477Z,48.00
2018-04-17T03:53:51.628Z,48.03
2018-04-17T03:55:28.698Z,48.06
2018-04-17T03:57:05.881Z,48.07
2018-04-17T03:58:43.942Z,48.04
2018-04-17T04:00:21.850Z,48.02
2018-04-17T04:01:59.214Z,48.00
2018-04-17T04:03:36.755Z,48.00
2018-04-17T04:05:14.759Z,48.01
2018-04-17T04:06:52.291Z,48.01
2018-04-17T04:08:29.824Z,48.02
2018-04-17T04:10:07.576Z,48.03
2018-04-17T04:11:45.629Z,48.06
2018-04-17T04:13:23.709Z,48.10
2018-04-17T04:15:00.880Z,48.14
2018-04-17T04:17:51.564Z,48.16
2018-04-17T04:23:55.819Z,48.17
2018-04-17T04:25:39.994Z,48.17
2018-04-17T04:27:18.366Z,48.19
2018-04-17T04:28:56.797Z,48.21
2018-04-17T04:30:34.397Z,48.23
2018-04-17T04:32:11.357Z,48.27
2018-04-17T04:33:48.797Z,48.29
2018-04-17T04:35:26.598Z,48.30
2018-04-17T04:37:04.539Z,48.32
2018-04-17T04:38:42.136Z,48.33
2018-04-17T04:40:19.208Z,48.36
2018-04-17T04:41:56.159Z,48.40
2018-04-17T04:43:34.399Z,48.43
2018-04-17T04:45:11.513Z,48.46
2018-04-17T04:46:48.723Z,48.47
2018-04-17T04:48:26.516Z,48.49
2018-04-17T04:50:04.477Z,48.51
2018-04-17T04:51:42.273Z,48.53
2018-04-17T04:53:19.340Z,48.55
2018-04-17T04:54:57.775Z,48.58
2018-04-17T04:56:34.918Z,48.61
2018-04-17T04:58:12.023Z,48.64
2018-04-17T04:59:50.192Z,48.69
2018-04-17T05:01:28.456Z,48.72
2018-04-17T05:03:06.531Z,48.76
2018-04-17T05:04:44.113Z,48.79
2018-04-17T05:06:22.453Z,48.83
2018-04-17T05:07:59.852Z,48.87
2018-04-17T05:09:37.784Z,48.90
2018-04-17T05:11:14.825Z,48.94
2018-04-17T05:12:53.137Z,48.96
2018-04-17T05:14:30.839Z,48.99
2018-04-17T05:16:08.671Z,49.01
2018-04-17T05:17:46.241Z,49.05
2018-04-17T05:19:23.419Z,49.09
2018-04-17T05:21:00.955Z,49.13
2018-04-17T05:22:39.719Z,49.18
2018-04-17T05:24:17.214Z,49.22
2018-04-17T05:25:54.783Z,49.24
2018-04-17T05:27:33.344Z,49.29
2018-04-17T05:29:11.111Z,49.31
2018-04-17T05:30:48.588Z,49.33
2018-04-17T05:32:26.259Z,49.38
2018-04-17T05:34:03.570Z,49.42
2018-04-17T05:35:42.906Z,49.48
2018-04-17T05:37:19.906Z,49.52
2018-04-17T05:38:56.249Z,49.58
2018-04-17T05:40:33.696Z,49.65
2018-04-17T05:42:11.965Z,49.69
2018-04-17T05:43:49.204Z,49.73
2018-04-17T05:45:29.676Z,49.76
2018-04-17T05:47:06.832Z,49.77
2018-04-17T05:48:45.453Z,49.81
2018-04-17T05:50:23.342Z,49.82
2018-04-17T05:52:01.321Z,49.90
2018-04-17T05:53:38.353Z,49.94
2018-04-17T05:55:15.452Z,50.01
2018-04-17T05:56:52.221Z,50.06
2018-04-17T05:58:29.672Z,50.10
2018-04-17T06:00:06.222Z,50.16
2018-04-17T06:01:43.454Z,50.20
2018-04-17T06:03:20.541Z,50.28
2018-04-17T06:04:57.840Z,50.35
2018-04-17T06:06:37.052Z,50.38
2018-04-17T06:08:14.484Z,50.43
2018-04-17T06:09:52.041Z,50.46
2018-04-17T06:11:29.017Z,50.50
2018-04-17T06:13:07.702Z,50.53
2018-04-17T06:14:45.367Z,50.54
2018-04-17T06:16:23.348Z,50.56
2018-04-17T06:18:00.833Z,50.59
2018-04-17T06:19:39.043Z,50.62
2018-04-17T06:21:17.760Z,50.66
2018-04-17T06:24:34.800Z,50.73
2018-04-17T06:26:12.614Z,50.77
2018-04-17T06:27:49.748Z,50.80
2018-04-17T06:29:27.325Z,50.81
2018-04-17T06:31:05.477Z,50.84
2018-04-17T06:32:43.064Z,50.84
2018-04-17T06:34:20.601Z,50.88
2018-04-17T06:35:58.930Z,50.93
2018-04-17T06:37:36.020Z,50.96
2018-04-17T06:39:13.639Z,50.94
2018-04-17T06:40:50.628Z,50.93
2018-04-17T06:42:28.920Z,50.96
2018-04-17T06:44:05.972Z,50.96
2018-04-17T06:45:44.647Z,50.97
2018-04-17T06:47:21.827Z,51.00
2018-04-17T06:48:59.615Z,51.04
2018-04-17T06:50:37.289Z,51.09
2018-04-17T06:52:14.853Z,51.14
2018-04-17T06:53:52.689Z,51.17
2018-04-17T06:55:31.046Z,51.21
2018-04-17T06:57:08.722Z,51.21
2018-04-17T06:58:47.106Z,51.23
2018-04-17T07:00:25.835Z,51.24
2018-04-17T07:02:03.279Z,51.27
2018-04-17T07:03:41.302Z,51.31
2018-04-17T07:05:18.878Z,51.34
2018-04-17T07:06:56.701Z,51.41
2018-04-17T07:08:33.562Z,51.45
2018-04-17T07:10:10.654Z,51.45
2018-04-17T07:11:48.591Z,51.46
2018-04-17T07:13:25.882Z,51.48
2018-04-17T07:15:03.664Z,51.51
2018-04-17T07:16:40.274Z,51.53
2018-04-17T07:18:18.308Z,51.55
2018-04-17T07:19:56.380Z,51.60
2018-04-17T07:21:33.476Z,51.66
2018-04-17T07:23:11.305Z,51.72
2018-04-17T07:24:48.897Z,51.71
2018-04-17T07:26:26.585Z,51.72
2018-04-17T07:28:03.021Z,51.73
2018-04-17T07:29:40.588Z,51.75
2018-04-17T07:31:18.628Z,51.77
2018-04-17T07:32:55.722Z,51.83
2018-04-17T07:34:33.335Z,51.89
2018-04-17T07:36:10.591Z,51.90
2018-04-17T07:37:49.451Z,51.90
2018-04-17T07:39:27.055Z,51.90
2018-04-17T07:41:04.135Z,51.93
2018-04-17T07:42:41.728Z,51.97
2018-04-17T07:44:19.727Z,52.02
2018-04-17T07:45:58.752Z,52.07
2018-04-17T07:47:38.040Z,52.12
2018-04-17T07:49:14.957Z,52.20
2018-04-17T07:50:53.036Z,52.26
2018-04-17T07:52:30.802Z,52.32
2018-04-17T07:54:09.135Z,52.36
2018-04-17T07:55:46.237Z,52.37
2018-04-17T07:57:24.821Z,52.40
2018-04-17T07:59:02.469Z,52.44
2018-04-17T08:00:42.827Z,52.47
2018-04-17T08:02:19.961Z,52.51
2018-04-17T08:04:03.772Z,52.52
2018-04-17T08:05:41.734Z,52.52
2018-04-17T08:07:18.788Z,52.55
2018-04-17T08:08:57.109Z,52.58
2018-04-17T08:10:35.626Z,52.58
2018-04-17T08:12:13.279Z,52.57
2018-04-17T08:13:50.559Z,52.62
2018-04-17T08:15:29.969Z,52.64
2018-04-17T08:17:07.405Z,52.61
2018-04-17T08:18:45.220Z,52.59
2018-04-17T08:20:22.824Z,52.62
2018-04-17T08:22:00.655Z,52.61
2018-04-17T08:23:38.679Z,52.61
2018-04-17T08:25:16.031Z,52.63
2018-04-17T08:26:53.300Z,52.68
2018-04-17T08:28:30.957Z,52.67
2018-04-17T08:30:08.324Z,52.64
2018-04-17T08:31:46.424Z,52.62
2018-04-17T08:33:24.340Z,52.64
2018-04-17T08:35:01.986Z,52.60
2018-04-17T08:36:39.543Z,52.55
2018-04-17T08:38:16.717Z,52.56
2018-04-17T08:39:54.584Z,52.53
2018-04-17T08:41:32.077Z,52.55
2018-04-17T08:43:10.687Z,52.59
2018-04-17T08:44:49.588Z,52.56
2018-04-17T08:46:26.529Z,52.52
2018-04-17T08:48:04.365Z,52.51
2018-04-17T08:49:42.431Z,52.49
2018-04-17T08:51:19.568Z,52.47
2018-04-17T08:52:57.018Z,52.46
2018-04-17T08:54:34.202Z,52.45
2018-04-17T08:56:11.712Z,52.46
2018-04-17T08:57:48.388Z,52.49
2018-04-17T08:59:25.822Z,52.50
2018-04-17T09:01:03.513Z,52.52
2018-04-17T09:02:41.381Z,52.50
2018-04-17T09:04:19.086Z,52.47
2018-04-17T09:05:56.210Z,52.44
2018-04-17T09:07:34.242Z,52.43
2018-04-17T09:09:12.059Z,52.43
2018-04-17T09:10:50.277Z,52.49
2018-04-17T09:12:28.596Z,52.42
2018-04-17T09:14:06.399Z,52.36
2018-04-17T09:15:44.434Z,52.32
2018-04-17T09:17:22.096Z,52.33
2018-04-17T09:19:00.157Z,52.34
2018-04-17T09:20:37.709Z,52.35
2018-04-17T09:22:14.925Z,52.37
2018-04-17T09:23:53.425Z,52.37
2018-04-17T09:27:02.848Z,52.36
2018-04-17T09:28:40.126Z,52.38
2018-04-17T09:30:19.681Z,52.37
2018-04-17T09:31:57.286Z,52.29
2018-04-17T09:33:34.799Z,52.30
2018-04-17T09:35:11.911Z,52.25
2018-04-17T09:36:51.691Z,52.23
2018-04-17T09:38:28.737Z,52.22
2018-04-17T09:40:06.861Z,52.19
2018-04-17T09:41:44.539Z,52.21
2018-04-17T09:43:22.819Z,52.21
2018-04-17T09:45:00.479Z,52.21
2018-04-17T09:46:38.805Z,52.23
2018-04-17T09:48:15.629Z,52.20
2018-04-17T09:49:53.164Z,52.14
2018-04-17T09:51:30.782Z,52.10
2018-04-17T09:53:08.714Z,52.10
2018-04-17T09:54:45.310Z,52.08
2018-04-17T09:56:22.135Z,52.09
2018-04-17T09:58:00.074Z,52.05
2018-04-17T09:59:37.699Z,52.01
2018-04-17T10:01:19.738Z,52.01
2018-04-17T10:02:56.185Z,52.02
2018-04-17T10:04:33.531Z,52.01
2018-04-17T10:06:10.616Z,52.00
2018-04-17T10:07:48.297Z,51.99
2018-04-17T10:09:25.943Z,51.96
2018-04-17T10:11:03.022Z,51.95
2018-04-17T10:12:40.688Z,51.93
2018-04-17T10:14:17.880Z,51.88
2018-04-17T10:15:54.993Z,51.91
2018-04-17T10:17:32.458Z,51.83
2018-04-17T10:19:10.011Z,51.75
2018-04-17T10:20:47.657Z,51.69
2018-04-17T10:22:24.928Z,51.68
2018-04-17T10:24:01.704Z,51.67
2018-04-17T10:25:40.372Z,51.68
2018-04-17T10:27:17.957Z,51.68
2018-04-17T10:28:57.255Z,51.62
2018-04-17T10:30:34.513Z,51.58
2018-04-17T10:32:12.403Z,51.58
2018-04-17T10:33:49.886Z,51.57
2018-04-17T10:35:26.775Z,51.53
2018-04-17T10:37:04.779Z,51.53
2018-04-17T10:38:42.154Z,51.53
2018-04-17T10:40:20.418Z,51.53
2018-04-17T10:41:58.081Z,51.51
2018-04-17T10:43:35.946Z,51.48
2018-04-17T10:45:15.162Z,51.42
2018-04-17T10:46:52.113Z,51.38
2018-04-17T10:48:29.185Z,51.37
2018-04-17T10:50:07.311Z,51.36
2018-04-17T10:51:44.494Z,51.35
2018-04-17T10:53:22.089Z,51.35
2018-04-17T10:54:59.454Z,51.30
2018-04-17T10:56:36.935Z,51.27
2018-04-17T10:58:14.796Z,51.26
2018-04-17T10:59:52.294Z,51.25
2018-04-17T11:01:31.135Z,51.23
2018-04-17T11:03:08.788Z,51.15
2018-04-17T11:04:46.377Z,51.07
2018-04-17T11:06:23.334Z,51.03
2018-04-17T11:08:01.997Z,50.99
2018-04-17T11:09:39.814Z,50.98
2018-04-17T11:11:17.373Z,50.97
2018-04-17T11:12:55.001Z,50.95
2018-04-17T11:14:33.364Z,50.94
2018-04-17T11:16:10.987Z,50.91
2018-04-17T11:17:48.811Z,50.88
2018-04-17T11:19:26.431Z,50.89
2018-04-17T11:21:05.526Z,50.85
2018-04-17T11:22:43.399Z,50.78
2018-04-17T11:24:20.650Z,50.71
2018-04-17T11:25:57.395Z,50.69
2018-04-17T11:27:34.465Z,50.68
2018-04-17T11:29:12.537Z,50.66
2018-04-17T11:30:50.257Z,50.60
2018-04-17T11:32:27.956Z,50.59
2018-04-17T11:34:06.908Z,50.57
2018-04-17T11:35:44.730Z,50.51
2018-04-17T11:37:21.954Z,50.49
2018-04-17T11:39:00.356Z,50.51
2018-04-17T11:40:37.792Z,50.45
2018-04-17T11:42:15.895Z,50.38
2018-04-17T11:43:53.399Z,50.33
2018-04-17T11:45:30.730Z,50.26
2018-04-17T11:47:08.999Z,50.25
2018-04-17T11:48:47.160Z,50.26
2018-04-17T11:50:25.114Z,50.25
2018-04-17T11:52:02.507Z,50.23
2018-04-17T11:53:40.427Z,50.15
2018-04-17T11:55:18.381Z,50.11
2018-04-17T11:56:55.119Z,50.02
2018-04-17T11:58:32.877Z,50.00
2018-04-17T12:00:12.356Z,49.94
2018-04-17T12:01:53.963Z,49.91
2018-04-17T12:03:31.226Z,49.89
2018-04-17T12:05:10.052Z,49.85
2018-04-17T12:06:47.827Z,49.83
2018-04-17T12:08:25.563Z,49.81
2018-04-17T12:10:03.222Z,49.78
2018-04-17T12:11:40.347Z,49.78
2018-04-17T12:13:18.100Z,49.77
2018-04-17T12:14:56.096Z,49.77
2018-04-17T12:16:32.782Z,49.75
2018-04-17T12:18:10.325Z,49.76
2018-04-17T12:19:47.544Z,49.74
2018-04-17T12:21:25.978Z,49.73
2018-04-17T12:23:04.196Z,49.70
2018-04-17T12:24:40.737Z,49.70
2018-04-17T12:26:18.392Z,49.66
2018-04-17T12:27:56.421Z,49.62
2018-04-17T12:29:33.980Z,49.59
2018-04-17T12:31:12.004Z,49.55
2018-04-17T12:32:49.483Z,49.52
2018-04-17T12:34:27.898Z,49.49
2018-04-17T12:36:05.918Z,49.45
2018-04-17T12:37:43.863Z,49.44
2018-04-17T12:39:22.291Z,49.44
2018-04-17T12:41:00.726Z,49.38
2018-04-17T12:42:38.474Z,49.33
2018-04-17T12:44:15.797Z,49.30
2018-04-17T12:45:59.232Z,49.27
2018-04-17T12:47:37.196Z,49.25
2018-04-17T12:49:15.008Z,49.23
2018-04-17T12:50:52.262Z,49.23
2018-04-17T12:52:29.920Z,49.17
2018-04-17T12:54:07.468Z,49.14
2018-04-17T12:55:44.467Z,49.10
2018-04-17T12:57:22.350Z,49.08
2018-04-17T12:59:01.104Z,49.00
2018-04-17T13:00:39.136Z,48.98
2018-04-17T13:02:16.758Z,48.97
2018-04-17T13:03:55.255Z,48.96
2018-04-17T13:05:33.410Z,48.92
2018-04-17T13:07:10.583Z,48.90
2018-04-17T13:08:48.640Z,48.89
2018-04-17T13:10:26.474Z,48.86
2018-04-17T13:12:04.842Z,48.83
2018-04-17T13:13:42.752Z,48.79
2018-04-17T13:15:21.515Z,48.73
2018-04-17T13:17:01.012Z,48.69
2018-04-17T13:18:38.905Z,48.65
2018-04-17T13:20:18.281Z,48.61
2018-04-17T13:21:55.977Z,48.58
2018-04-17T13:23:33.142Z,48.55
2018-04-17T13:25:11.408Z,48.52
2018-04-17T13:26:48.588Z,48.51
2018-04-17T13:28:25.578Z,48.46
2018-04-17T13:30:03.264Z,48.44
2018-04-17T13:31:40.505Z,48.36
2018-04-17T13:33:18.178Z,48.31
2018-04-17T13:34:55.924Z,48.27
2018-04-17T13:36:34.488Z,48.20
2018-04-17T13:38:13.623Z,48.17
2018-04-17T13:39:51.111Z,48.16
2018-04-17T13:41:30.029Z,48.14
2018-04-17T13:43:07.907Z,48.08
2018-04-17T13:44:46.668Z,48.03
2018-04-17T13:46:23.459Z,47.99
2018-04-17T13:48:00.745Z,47.93
2018-04-17T13:49:39.369Z,47.87
2018-04-17T13:51:17.598Z,47.86
2018-04-17T13:52:55.511Z,47.83
2018-04-17T13:54:34.628Z,47.80
2018-04-17T13:56:13.523Z,47.76
2018-04-17T13:57:52.267Z,47.74
2018-04-17T13:59:30.165Z,47.74
2018-04-17T14:01:08.093Z,47.73
2018-04-17T14:02:45.966Z,47.73
2018-04-17T14:04:24.911Z,47.68
2018-04-17T14:06:02.786Z,47.66
2018-04-17T14:07:41.418Z,47.64
2018-04-17T14:09:20.568Z,47.63
2018-04-17T14:10:59.642Z,47.61
2018-04-17T14:12:36.822Z,47.55
2018-04-17T14:14:14.028Z,47.47
2018-04-17T14:15:52.559Z,47.41
2018-04-17T14:17:30.978Z,47.38
2018-04-17T14:19:10.325Z,47.33
2018-04-17T14:20:49.159Z,47.32
2018-04-17T14:22:27.622Z,47.28
2018-04-17T14:24:05.500Z,47.22
2018-04-17T14:25:43.440Z,47.27
2018-04-17T14:27:25.122Z,47.25
2018-04-17T14:29:03.795Z,47.26
2018-04-17T14:30:42.700Z,47.21
2018-04-17T14:32:20.526Z,47.17
2018-04-17T14:33:59.041Z,47.11
2018-04-17T14:35:36.807Z,47.06
2018-04-17T14:37:15.991Z,47.00
2018-04-17T14:38:54.108Z,46.96
2018-04-17T14:40:32.546Z,46.93
2018-04-17T14:42:11.472Z,46.90
2018-04-17T14:43:49.405Z,46.88
2018-04-17T14:45:29.885Z,46.86
2018-04-17T14:47:09.049Z,46.82
2018-04-17T14:48:46.781Z,46.81
2018-04-17T14:50:25.157Z,46.78
2018-04-17T14:52:03.833Z,46.74
2018-04-17T14:53:41.970Z,46.74
2018-04-17T14:55:39.896Z,46.73
2018-04-17T14:57:20.514Z,46.72
2018-04-17T14:58:59.017Z,46.70
2018-04-17T15:00:37.240Z,46.68
2018-04-17T15:02:15.792Z,46.64
2018-04-17T15:03:53.645Z,46.62
2018-04-17T15:05:31.906Z,46.60
2018-04-17T15:07:11.279Z,46.60
2018-04-17T15:08:48.581Z,46.57
2018-04-17T15:10:26.533Z,46.51
2018-04-17T15:12:03.195Z,46.45
2018-04-17T15:13:40.370Z,46.43
2018-04-17T15:15:19.904Z,46.41
2018-04-17T15:16:57.651Z,46.38
2018-04-17T15:18:37.713Z,46.38
2018-04-17T15:20:17.846Z,46.37
2018-04-17T15:22:01.058Z,46.38
2018-04-17T15:23:39.561Z,46.32
2018-04-17T15:25:17.853Z,46.31
2018-04-17T15:26:57.096Z,46.31
2018-04-17T15:28:35.702Z,46.27
2018-04-17T15:30:16.472Z,46.25
2018-04-17T15:31:54.347Z,46.23
2018-04-17T15:33:31.893Z,46.22
2018-04-17T15:35:12.132Z,46.19
2018-04-17T15:36:51.686Z,46.12
2018-04-17T15:38:29.852Z,46.07
2018-04-17T15:40:07.304Z,46.01
2018-04-17T15:41:46.867Z,45.98
2018-04-17T15:43:27.084Z,45.97
2018-04-17T15:45:07.569Z,45.96
2018-04-17T15:46:47.260Z,45.99
2018-04-17T15:48:26.021Z,45.96
2018-04-17T15:50:05.618Z,45.92
2018-04-17T15:51:49.422Z,45.85
2018-04-17T15:53:27.925Z,45.78
2018-04-17T15:55:20.106Z,45.72
2018-04-17T15:57:02.565Z,45.66
2018-04-17T15:58:41.885Z,45.64
2018-04-17T16:00:25.089Z,45.61
2018-04-17T16:02:14.828Z,45.58
2018-04-17T16:03:53.177Z,45.54
2018-04-17T16:05:37.252Z,45.54
2018-04-17T16:07:20.767Z,45.55
2018-04-17T16:09:00.851Z,45.52
2018-04-17T16:10:41.372Z,45.51
2018-04-17T16:12:21.860Z,45.47
2018-04-17T16:14:00.279Z,45.44
2018-04-17T16:15:37.869Z,45.42
2018-04-17T16:17:15.439Z,45.42
2018-04-17T16:19:02.848Z,45.39
2018-04-17T16:20:43.200Z,45.40
2018-04-17T16:22:23.542Z,45.34
2018-04-17T16:24:07.409Z,45.29
2018-04-17T16:25:50.292Z,45.28
2018-04-17T16:27:29.448Z,45.26
2018-04-17T16:29:10.737Z,45.25
2018-04-17T16:31:02.302Z,45.24
2018-04-17T16:32:42.134Z,45.19
2018-04-17T16:34:22.714Z,45.16
2018-04-17T16:36:01.430Z,45.14
2018-04-17T16:37:39.051Z,45.09
2018-04-17T16:39:25.333Z,45.05
2018-04-17T16:41:05.443Z,45.03
2018-04-17T16:42:43.608Z,44.99
2018-04-17T16:44:28.282Z,44.96
2018-04-17T16:46:06.919Z,44.91
2018-04-17T16:47:45.684Z,44.91
2018-04-17T16:49:23.212Z,44.88
2018-04-17T16:51:04.681Z,44.83
2018-04-17T16:52:43.775Z,44.79
2018-04-17T16:54:21.088Z,44.77
2018-04-17T16:55:59.596Z,44.72
2018-04-17T16:57:37.698Z,44.65
2018-04-17T16:59:15.573Z,44.60
2018-04-17T17:00:54.029Z,44.58
2018-04-17T17:02:32.095Z,44.57
2018-04-17T17:04:10.613Z,44.53
2018-04-17T17:05:48.616Z,44.49
2018-04-17T17:07:27.183Z,44.48
2018-04-17T17:09:08.635Z,44.44
2018-04-17T17:10:48.107Z,44.41
2018-04-17T17:12:27.852Z,44.38
2018-04-17T17:14:08.582Z,44.34
2018-04-17T17:15:49.249Z,44.31
2018-04-17T17:17:30.518Z,44.29
2018-04-17T17:19:10.306Z,44.28
2018-04-17T17:20:48.976Z,44.23
2018-04-17T17:22:29.016Z,44.22
2018-04-17T17:24:10.466Z,44.16
2018-04-17T17:25:57.289Z,44.10
2018-04-17T17:27:38.202Z,44.04
2018-04-17T17:29:23.207Z,43.99
2018-04-17T17:31:05.506Z,43.94
2018-04-17T17:35:22.409Z,43.91
2018-04-17T17:37:01.385Z,43.90
2018-04-17T17:38:41.775Z,43.86
2018-04-17T17:40:22.174Z,43.79
2018-04-17T17:42:02.156Z,43.76
2018-04-17T17:43:46.033Z,43.72
2018-04-17T17:45:27.134Z,43.72
2018-04-17T17:47:08.346Z,43.71
2018-04-17T17:48:47.387Z,43.71
2018-04-17T17:50:27.636Z,43.66
2018-04-17T17:52:08.169Z,43.65
2018-04-17T17:53:53.329Z,43.62
2018-04-17T17:55:34.794Z,43.62
2018-04-17T17:57:14.343Z,43.56
2018-04-17T17:58:54.378Z,43.51
2018-04-17T18:00:34.510Z,43.48
2018-04-17T18:02:13.946Z,43.46
2018-04-17T18:03:56.004Z,43.42
2018-04-17T18:05:36.247Z,43.41
2018-04-17T18:07:18.539Z,43.38
2018-04-17T18:08:59.019Z,43.35
2018-04-17T18:10:39.789Z,43.34
2018-04-17T18:12:22.278Z,43.30
2018-04-17T18:14:01.741Z,43.28
2018-04-17T18:15:44.206Z,43.25
2018-04-17T18:17:27.799Z,43.19
2018-04-17T18:19:08.858Z,43.15
2018-04-17T18:20:51.384Z,43.11
2018-04-17T18:22:30.646Z,43.09
2018-04-17T18:24:13.905Z,43.07
2018-04-17T18:25:55.775Z,43.04
2018-04-17T18:27:40.827Z,43.01
2018-04-17T18:29:21.233Z,42.98
2018-04-17T18:31:02.334Z,42.96
2018-04-17T18:32:42.972Z,42.92
2018-04-17T18:34:25.350Z,42.91
2018-04-17T18:36:05.693Z,42.88
2018-04-17T18:37:45.830Z,42.85
2018-04-17T18:39:26.904Z,42.82
2018-04-17T18:41:06.879Z,42.78
2018-04-17T18:42:50.069Z,42.75
2018-04-17T18:44:31.884Z,42.71
2018-04-17T18:46:15.299Z,42.70
2018-04-17T18:47:58.063Z,42.66
2018-04-17T18:49:38.796Z,42.64
2018-04-17T18:51:19.125Z,42.61
2018-04-17T18:52:57.790Z,42.58
2018-04-17T18:54:44.707Z,42.56
2018-04-17T18:56:30.278Z,42.53
2018-04-17T18:58:13.511Z,42.51
2018-04-17T18:59:54.155Z,42.48
2018-04-17T19:01:37.478Z,42.44
2018-04-17T19:03:17.090Z,42.42
2018-04-17T19:05:01.960Z,42.39
2018-04-17T19:06:42.571Z,42.35
2018-04-17T19:08:26.228Z,42.32
2018-04-17T19:10:06.991Z,42.28
2018-04-17T19:11:48.781Z,42.25
2018-04-17T19:13:29.786Z,42.24
2018-04-17T19:15:11.960Z,42.23
2018-04-17T19:17:01.255Z,42.21
2018-04-17T19:18:45.679Z,42.19
2018-04-17T19:20:29.333Z,42.17
2018-04-17T19:22:11.787Z,42.17
2018-04-17T19:23:53.365Z,42.16
2018-04-17T19:25:31.934Z,42.15
2018-04-17T19:27:14.007Z,42.14
2018-04-17T19:28:57.555Z,42.13
2018-04-17T19:30:38.217Z,42.11
2018-04-17T19:32:20.382Z,42.09
2018-04-17T19:34:01.978Z,42.08
2018-04-17T19:35:41.910Z,42.06
2018-04-17T19:37:22.594Z,42.05
2018-04-17T19:39:01.923Z,42.03
2018-04-17T19:40:43.133Z,42.02
2018-04-17T19:42:24.299Z,42.02
2018-04-17T19:44:02.361Z,42.01
2018-04-17T19:45:46.756Z,42.00
2018-04-17T19:47:27.192Z,41.97
2018-04-17T19:49:09.698Z,41.95
2018-04-17T19:50:50.516Z,41.94
2018-04-17T19:52:35.676Z,41.92
2018-04-17T19:54:24.990Z,41.91
2018-04-17T19:56:08.270Z,41.90
2018-04-17T19:57:50.024Z,41.89
2018-04-17T19:59:31.501Z,41.88
2018-04-17T20:01:21.097Z,41.87
2018-04-17T20:03:01.802Z,41.86
2018-04-17T20:04:41.766Z,41.84
2018-04-17T20:06:21.293Z,41.79
2018-04-17T20:08:02.389Z,41.73
2018-04-17T20:09:41.594Z,41.65
2018-04-17T20:11:21.532Z,41.58
2018-04-17T20:13:03.645Z,41.54
2018-04-17T20:14:50.359Z,41.50
2018-04-17T20:16:31.135Z,41.46
2018-04-17T20:18:11.744Z,41.46
2018-04-17T20:19:54.072Z,41.47
2018-04-17T20:21:42.052Z,41.48
2018-04-17T20:23:20.785Z,41.50
2018-04-17T20:24:59.151Z,41.50
2018-04-17T20:26:38.822Z,41.52
2018-04-17T20:28:23.666Z,41.53
2018-04-17T20:30:04.479Z,41.55
2018-04-17T20:31:44.199Z,41.56
2018-04-17T20:33:23.454Z,41.57
2018-04-17T20:35:02.084Z,41.56
2018-04-17T20:36:41.656Z,41.56
2018-04-17T20:38:20.593Z,41.57
2018-04-17T20:40:01.632Z,41.57
2018-04-17T20:41:42.022Z,41.57
2018-04-17T20:43:21.316Z,41.58
2018-04-17T20:45:01.258Z,41.58
2018-04-17T20:46:39.811Z,41.58
2018-04-17T20:48:17.893Z,41.58
2018-04-17T20:49:57.212Z,41.59
2018-04-17T20:51:34.596Z,41.58
2018-04-17T20:53:12.666Z,41.60
2018-04-17T20:54:50.680Z,41.61
2018-04-17T20:56:29.001Z,41.62
2018-04-17T20:58:07.587Z,41.62
2018-04-17T20:59:45.283Z,41.61
2018-04-17T21:01:21.921Z,41.61
2018-04-17T21:02:58.611Z,41.63
2018-04-17T21:04:36.373Z,41.65
2018-04-17T21:06:13.527Z,41.66
2018-04-17T21:07:50.373Z,41.66
2018-04-17T21:09:27.021Z,41.67
2018-04-17T21:11:03.478Z,41.68
2018-04-17T21:12:40.115Z,41.68
2018-04-17T21:14:17.024Z,41.68
2018-04-17T21:15:53.954Z,41.68
2018-04-17T21:17:30.544Z,41.67
2018-04-17T21:19:06.912Z,41.67
2018-04-17T21:20:43.326Z,41.67
2018-04-17T21:22:20.600Z,41.69
2018-04-17T21:23:58.290Z,41.69